sensor_id;sensor_type;location;lat;lon;timestamp;temperature;humidity
16823;DHT22;8528;49.976;11.858;2023-08-07T00:02:02;10.90;99.90
16823;DHT22;8528;49.976;11.858;2023-08-07T00:04:29;10.90;99.90
16823;DHT22;8528;49.976;11.858;2023-08-07T00:06:56;10.90;99.90
16823;DHT22;8528;49.976;11.858;2023-08-07T00:09:23;10.90;99.90
16823;DHT22;8528;49.976;11.858;2023-08-07T00:11:50;10.90;99.90
16823;DHT22;8528;49.976;11.858;2023-08-07T00:14:17;10.90;99.90
16823;DHT22;8528;49.976;11.858;2023-08-07T00:16:44;10.90;99.90
16823;DHT22;8528;49.976;11.858;2023-08-07T00:19:11;10.90;99.90
16823;DHT22;8528;49.976;11.858;2023-08-07T00:21:38;10.90;99.90
16823;DHT22;8528;49.976;11.858;2023-08-07T00:24:05;10.80;99.90
16823;DHT22;8528;49.976;11.858;2023-08-07T00:26:32;10.90;99.90
16823;DHT22;8528;49.976;11.858;2023-08-07T00:28:59;10.90;99.90
16823;DHT22;8528;49.976;11.858;2023-08-07T00:31:26;10.90;99.90
16823;DHT22;8528;49.976;11.858;2023-08-07T00:33:58;10.90;99.90
16823;DHT22;8528;49.976;11.858;2023-08-07T00:36:26;10.90;99.90
16823;DHT22;8528;49.976;11.858;2023-08-07T00:38:55;10.90;99.90
16823;DHT22;8528;49.976;11.858;2023-08-07T00:41:23;10.90;99.90
16823;DHT22;8528;49.976;11.858;2023-08-07T00:43:50;10.90;99.90
16823;DHT22;8528;49.976;11.858;2023-08-07T00:46:17;10.90;99.90
16823;DHT22;8528;49.976;11.858;2023-08-07T00:48:44;10.90;99.90
16823;DHT22;8528;49.976;11.858;2023-08-07T00:51:12;10.90;99.90
16823;DHT22;8528;49.976;11.858;2023-08-07T00:53:39;10.90;99.90
16823;DHT22;8528;49.976;11.858;2023-08-07T00:56:06;10.90;99.90
16823;DHT22;8528;49.976;11.858;2023-08-07T00:58:33;10.90;99.90
16823;DHT22;8528;49.976;11.858;2023-08-07T01:01:01;10.90;99.90
16823;DHT22;8528;49.976;11.858;2023-08-07T01:03:28;10.90;99.90
16823;DHT22;8528;49.976;11.858;2023-08-07T01:05:55;10.90;99.90
16823;DHT22;8528;49.976;11.858;2023-08-07T01:08:25;10.90;99.90
16823;DHT22;8528;49.976;11.858;2023-08-07T01:16:46;10.90;99.90
16823;DHT22;8528;49.976;11.858;2023-08-07T01:19:23;10.90;99.90
16823;DHT22;8528;49.976;11.858;2023-08-07T01:22:10;10.90;99.90
16823;DHT22;8528;49.976;11.858;2023-08-07T01:24:39;10.80;99.90
16823;DHT22;8528;49.976;11.858;2023-08-07T01:32:49;10.90;99.90
16823;DHT22;8528;49.976;11.858;2023-08-07T01:35:22;10.90;99.90
16823;DHT22;8528;49.976;11.858;2023-08-07T01:37:53;10.90;99.90
16823;DHT22;8528;49.976;11.858;2023-08-07T01:40:22;10.90;99.90
16823;DHT22;8528;49.976;11.858;2023-08-07T01:42:49;10.90;99.90
16823;DHT22;8528;49.976;11.858;2023-08-07T01:45:26;10.90;99.90
16823;DHT22;8528;49.976;11.858;2023-08-07T01:47:54;10.90;99.90
16823;DHT22;8528;49.976;11.858;2023-08-07T01:50:22;10.90;99.90
16823;DHT22;8528;49.976;11.858;2023-08-07T01:52:50;10.90;99.90
16823;DHT22;8528;49.976;11.858;2023-08-07T01:55:18;11.00;99.90
16823;DHT22;8528;49.976;11.858;2023-08-07T01:57:46;11.00;99.90
16823;DHT22;8528;49.976;11.858;2023-08-07T02:00:13;11.00;99.90
16823;DHT22;8528;49.976;11.858;2023-08-07T02:02:39;11.00;99.90
16823;DHT22;8528;49.976;11.858;2023-08-07T02:05:07;11.00;99.90
16823;DHT22;8528;49.976;11.858;2023-08-07T02:07:33;11.00;99.90
16823;DHT22;8528;49.976;11.858;2023-08-07T02:10:00;11.00;99.90
16823;DHT22;8528;49.976;11.858;2023-08-07T02:12:27;11.00;99.90
16823;DHT22;8528;49.976;11.858;2023-08-07T02:14:56;11.00;99.90
16823;DHT22;8528;49.976;11.858;2023-08-07T02:17:23;11.00;99.90
16823;DHT22;8528;49.976;11.858;2023-08-07T02:19:50;11.00;99.90
16823;DHT22;8528;49.976;11.858;2023-08-07T02:22:16;11.00;99.90
16823;DHT22;8528;49.976;11.858;2023-08-07T02:24:43;11.00;99.90
16823;DHT22;8528;49.976;11.858;2023-08-07T02:27:10;11.10;99.90
16823;DHT22;8528;49.976;11.858;2023-08-07T02:29:36;11.00;99.90
16823;DHT22;8528;49.976;11.858;2023-08-07T02:32:03;11.00;99.90
16823;DHT22;8528;49.976;11.858;2023-08-07T02:34:31;11.00;99.90
16823;DHT22;8528;49.976;11.858;2023-08-07T02:36:59;11.00;99.90
16823;DHT22;8528;49.976;11.858;2023-08-07T02:39:26;11.00;99.90
16823;DHT22;8528;49.976;11.858;2023-08-07T02:41:52;11.10;99.90
16823;DHT22;8528;49.976;11.858;2023-08-07T02:44:19;11.10;99.90
16823;DHT22;8528;49.976;11.858;2023-08-07T02:46:47;11.00;99.90
16823;DHT22;8528;49.976;11.858;2023-08-07T02:49:14;11.00;99.90
16823;DHT22;8528;49.976;11.858;2023-08-07T02:51:41;11.00;99.90
16823;DHT22;8528;49.976;11.858;2023-08-07T02:54:08;11.00;99.90
16823;DHT22;8528;49.976;11.858;2023-08-07T02:56:34;11.00;99.90
16823;DHT22;8528;49.976;11.858;2023-08-07T02:59:01;11.00;99.90
16823;DHT22;8528;49.976;11.858;2023-08-07T03:01:28;11.00;99.90
16823;DHT22;8528;49.976;11.858;2023-08-07T03:03:56;11.00;99.90
16823;DHT22;8528;49.976;11.858;2023-08-07T03:06:23;10.90;99.90
16823;DHT22;8528;49.976;11.858;2023-08-07T03:08:50;10.90;99.90
16823;DHT22;8528;49.976;11.858;2023-08-07T03:11:16;10.90;99.90
16823;DHT22;8528;49.976;11.858;2023-08-07T03:13:43;10.90;99.90
16823;DHT22;8528;49.976;11.858;2023-08-07T03:16:11;10.90;99.90
16823;DHT22;8528;49.976;11.858;2023-08-07T03:18:38;10.90;99.90
16823;DHT22;8528;49.976;11.858;2023-08-07T03:21:04;10.90;99.90
16823;DHT22;8528;49.976;11.858;2023-08-07T03:23:31;10.90;99.90
16823;DHT22;8528;49.976;11.858;2023-08-07T03:26:16;10.90;99.90
16823;DHT22;8528;49.976;11.858;2023-08-07T03:28:45;10.80;99.90
16823;DHT22;8528;49.976;11.858;2023-08-07T03:31:16;10.80;99.90
16823;DHT22;8528;49.976;11.858;2023-08-07T03:33:42;10.80;99.90
16823;DHT22;8528;49.976;11.858;2023-08-07T03:36:09;10.80;99.90
16823;DHT22;8528;49.976;11.858;2023-08-07T03:38:36;10.80;99.90
16823;DHT22;8528;49.976;11.858;2023-08-07T03:41:03;10.80;99.90
16823;DHT22;8528;49.976;11.858;2023-08-07T03:43:30;10.80;99.90
16823;DHT22;8528;49.976;11.858;2023-08-07T03:45:57;10.70;99.90
16823;DHT22;8528;49.976;11.858;2023-08-07T03:48:28;10.80;99.90
16823;DHT22;8528;49.976;11.858;2023-08-07T03:51:15;10.70;99.90
16823;DHT22;8528;49.976;11.858;2023-08-07T03:53:43;10.70;99.90
16823;DHT22;8528;49.976;11.858;2023-08-07T03:56:10;10.70;99.90
16823;DHT22;8528;49.976;11.858;2023-08-07T03:58:37;10.70;99.90
16823;DHT22;8528;49.976;11.858;2023-08-07T04:01:04;10.70;99.90
16823;DHT22;8528;49.976;11.858;2023-08-07T04:03:31;10.70;99.90
16823;DHT22;8528;49.976;11.858;2023-08-07T04:05:58;10.70;99.90
16823;DHT22;8528;49.976;11.858;2023-08-07T04:08:27;10.70;99.90
16823;DHT22;8528;49.976;11.858;2023-08-07T04:11:12;10.60;99.90
16823;DHT22;8528;49.976;11.858;2023-08-07T04:13:39;10.70;99.90
16823;DHT22;8528;49.976;11.858;2023-08-07T04:16:06;10.70;99.90
16823;DHT22;8528;49.976;11.858;2023-08-07T04:18:33;10.70;99.90
16823;DHT22;8528;49.976;11.858;2023-08-07T04:21:01;10.60;99.90
16823;DHT22;8528;49.976;11.858;2023-08-07T04:23:27;10.60;99.90
16823;DHT22;8528;49.976;11.858;2023-08-07T04:25:54;10.60;99.90
16823;DHT22;8528;49.976;11.858;2023-08-07T04:28:21;10.60;99.90
16823;DHT22;8528;49.976;11.858;2023-08-07T04:30:52;10.60;99.90
16823;DHT22;8528;49.976;11.858;2023-08-07T04:33:22;10.60;99.90
16823;DHT22;8528;49.976;11.858;2023-08-07T04:35:49;10.60;99.90
16823;DHT22;8528;49.976;11.858;2023-08-07T04:38:16;10.70;99.90
16823;DHT22;8528;49.976;11.858;2023-08-07T04:40:47;10.60;99.90
16823;DHT22;8528;49.976;11.858;2023-08-07T04:43:15;10.60;99.90
16823;DHT22;8528;49.976;11.858;2023-08-07T04:45:42;10.70;99.90
16823;DHT22;8528;49.976;11.858;2023-08-07T04:48:11;10.60;99.90
16823;DHT22;8528;49.976;11.858;2023-08-07T04:50:38;10.70;99.90
16823;DHT22;8528;49.976;11.858;2023-08-07T04:53:05;10.60;99.90
16823;DHT22;8528;49.976;11.858;2023-08-07T04:55:32;10.70;99.90
16823;DHT22;8528;49.976;11.858;2023-08-07T04:57:59;10.70;99.90
16823;DHT22;8528;49.976;11.858;2023-08-07T05:00:27;10.70;99.90
16823;DHT22;8528;49.976;11.858;2023-08-07T05:02:54;10.70;99.90
16823;DHT22;8528;49.976;11.858;2023-08-07T05:05:21;10.60;99.90
16823;DHT22;8528;49.976;11.858;2023-08-07T05:07:48;10.60;99.90
16823;DHT22;8528;49.976;11.858;2023-08-07T05:10:15;10.60;99.90
16823;DHT22;8528;49.976;11.858;2023-08-07T05:12:42;10.60;99.90
16823;DHT22;8528;49.976;11.858;2023-08-07T05:15:09;10.60;99.90
16823;DHT22;8528;49.976;11.858;2023-08-07T05:17:36;10.60;99.90
16823;DHT22;8528;49.976;11.858;2023-08-07T05:20:03;10.60;99.90
16823;DHT22;8528;49.976;11.858;2023-08-07T05:22:31;10.60;99.90
16823;DHT22;8528;49.976;11.858;2023-08-07T05:24:58;10.60;99.90
16823;DHT22;8528;49.976;11.858;2023-08-07T05:27:25;10.60;99.90
16823;DHT22;8528;49.976;11.858;2023-08-07T05:29:51;10.70;99.90
16823;DHT22;8528;49.976;11.858;2023-08-07T05:32:18;10.70;99.90
16823;DHT22;8528;49.976;11.858;2023-08-07T05:34:45;10.70;99.90
16823;DHT22;8528;49.976;11.858;2023-08-07T05:37:12;10.70;99.90
16823;DHT22;8528;49.976;11.858;2023-08-07T05:39:39;10.70;99.90
16823;DHT22;8528;49.976;11.858;2023-08-07T05:42:06;10.80;99.90
16823;DHT22;8528;49.976;11.858;2023-08-07T05:44:34;10.70;99.90
16823;DHT22;8528;49.976;11.858;2023-08-07T05:47:01;10.80;99.90
16823;DHT22;8528;49.976;11.858;2023-08-07T05:49:28;10.80;99.90
16823;DHT22;8528;49.976;11.858;2023-08-07T05:51:55;10.80;99.90
16823;DHT22;8528;49.976;11.858;2023-08-07T05:54:22;10.80;99.90
16823;DHT22;8528;49.976;11.858;2023-08-07T05:56:49;10.80;99.90
16823;DHT22;8528;49.976;11.858;2023-08-07T05:59:16;10.70;99.90
16823;DHT22;8528;49.976;11.858;2023-08-07T06:01:43;10.70;99.90
16823;DHT22;8528;49.976;11.858;2023-08-07T06:04:09;10.80;99.90
16823;DHT22;8528;49.976;11.858;2023-08-07T06:06:36;10.80;99.90
16823;DHT22;8528;49.976;11.858;2023-08-07T06:09:06;10.70;99.90
16823;DHT22;8528;49.976;11.858;2023-08-07T06:11:33;10.70;99.90
16823;DHT22;8528;49.976;11.858;2023-08-07T06:14:00;10.70;99.90
16823;DHT22;8528;49.976;11.858;2023-08-07T06:16:27;10.70;99.90
16823;DHT22;8528;49.976;11.858;2023-08-07T06:18:54;10.70;99.90
16823;DHT22;8528;49.976;11.858;2023-08-07T06:21:22;10.70;99.90
16823;DHT22;8528;49.976;11.858;2023-08-07T06:23:49;10.70;99.90
16823;DHT22;8528;49.976;11.858;2023-08-07T06:26:16;10.70;99.90
16823;DHT22;8528;49.976;11.858;2023-08-07T06:28:43;10.70;99.90
16823;DHT22;8528;49.976;11.858;2023-08-07T06:31:11;10.70;99.90
16823;DHT22;8528;49.976;11.858;2023-08-07T06:33:38;10.70;99.90
16823;DHT22;8528;49.976;11.858;2023-08-07T06:36:07;10.80;99.90
16823;DHT22;8528;49.976;11.858;2023-08-07T06:38:35;10.80;99.90
16823;DHT22;8528;49.976;11.858;2023-08-07T06:41:04;10.90;99.90
16823;DHT22;8528;49.976;11.858;2023-08-07T06:43:31;10.80;99.90
16823;DHT22;8528;49.976;11.858;2023-08-07T06:45:58;10.90;99.90
16823;DHT22;8528;49.976;11.858;2023-08-07T06:48:25;10.90;99.90
16823;DHT22;8528;49.976;11.858;2023-08-07T06:50:52;10.90;99.90
16823;DHT22;8528;49.976;11.858;2023-08-07T06:53:19;10.90;99.90
16823;DHT22;8528;49.976;11.858;2023-08-07T06:55:46;10.90;99.90
16823;DHT22;8528;49.976;11.858;2023-08-07T06:58:13;10.90;99.90
16823;DHT22;8528;49.976;11.858;2023-08-07T07:00:39;11.00;99.90
16823;DHT22;8528;49.976;11.858;2023-08-07T07:03:06;10.90;99.90
16823;DHT22;8528;49.976;11.858;2023-08-07T07:05:34;10.90;99.90
16823;DHT22;8528;49.976;11.858;2023-08-07T07:08:01;10.90;99.90
16823;DHT22;8528;49.976;11.858;2023-08-07T07:10:28;10.90;99.90
16823;DHT22;8528;49.976;11.858;2023-08-07T07:12:55;10.80;99.90
16823;DHT22;8528;49.976;11.858;2023-08-07T07:15:22;10.80;99.90
16823;DHT22;8528;49.976;11.858;2023-08-07T07:17:48;10.80;99.90
16823;DHT22;8528;49.976;11.858;2023-08-07T07:20:15;10.90;99.90
16823;DHT22;8528;49.976;11.858;2023-08-07T07:22:42;10.90;99.90
16823;DHT22;8528;49.976;11.858;2023-08-07T07:25:09;10.90;99.90
16823;DHT22;8528;49.976;11.858;2023-08-07T07:27:36;10.90;99.90
16823;DHT22;8528;49.976;11.858;2023-08-07T07:30:04;10.90;99.90
16823;DHT22;8528;49.976;11.858;2023-08-07T07:32:31;10.80;99.90
16823;DHT22;8528;49.976;11.858;2023-08-07T07:34:58;10.70;99.90
16823;DHT22;8528;49.976;11.858;2023-08-07T07:37:24;10.80;99.90
16823;DHT22;8528;49.976;11.858;2023-08-07T07:39:52;10.80;99.90
16823;DHT22;8528;49.976;11.858;2023-08-07T07:42:19;10.90;99.90
16823;DHT22;8528;49.976;11.858;2023-08-07T07:44:45;10.90;99.90
16823;DHT22;8528;49.976;11.858;2023-08-07T07:47:12;11.00;99.90
16823;DHT22;8528;49.976;11.858;2023-08-07T07:49:45;11.00;99.90
16823;DHT22;8528;49.976;11.858;2023-08-07T07:52:13;11.00;99.90
16823;DHT22;8528;49.976;11.858;2023-08-07T07:54:40;11.10;99.90
16823;DHT22;8528;49.976;11.858;2023-08-07T07:57:07;11.20;99.90
16823;DHT22;8528;49.976;11.858;2023-08-07T07:59:34;11.20;99.90
16823;DHT22;8528;49.976;11.858;2023-08-07T08:02:01;11.30;99.90
16823;DHT22;8528;49.976;11.858;2023-08-07T08:04:28;11.30;99.90
16823;DHT22;8528;49.976;11.858;2023-08-07T08:06:55;11.30;99.90
16823;DHT22;8528;49.976;11.858;2023-08-07T08:09:22;11.30;99.90
16823;DHT22;8528;49.976;11.858;2023-08-07T08:11:49;11.20;99.90
16823;DHT22;8528;49.976;11.858;2023-08-07T08:14:16;11.20;99.90
16823;DHT22;8528;49.976;11.858;2023-08-07T08:16:43;11.20;99.90
16823;DHT22;8528;49.976;11.858;2023-08-07T08:19:10;11.20;99.90
16823;DHT22;8528;49.976;11.858;2023-08-07T08:21:37;11.20;99.90
16823;DHT22;8528;49.976;11.858;2023-08-07T08:24:04;11.10;99.90
16823;DHT22;8528;49.976;11.858;2023-08-07T08:26:31;11.10;99.90
16823;DHT22;8528;49.976;11.858;2023-08-07T08:28:58;11.10;99.90
16823;DHT22;8528;49.976;11.858;2023-08-07T08:31:24;11.00;99.90
16823;DHT22;8528;49.976;11.858;2023-08-07T08:33:52;11.00;99.90
16823;DHT22;8528;49.976;11.858;2023-08-07T08:36:18;11.00;99.90
16823;DHT22;8528;49.976;11.858;2023-08-07T08:38:45;11.00;99.90
16823;DHT22;8528;49.976;11.858;2023-08-07T08:41:16;11.00;99.90
16823;DHT22;8528;49.976;11.858;2023-08-07T08:43:43;11.00;99.90
16823;DHT22;8528;49.976;11.858;2023-08-07T08:46:14;11.00;99.90
16823;DHT22;8528;49.976;11.858;2023-08-07T08:48:47;11.00;99.90
16823;DHT22;8528;49.976;11.858;2023-08-07T08:51:16;10.90;99.90
16823;DHT22;8528;49.976;11.858;2023-08-07T08:53:48;10.90;99.90
16823;DHT22;8528;49.976;11.858;2023-08-07T08:56:16;10.90;99.90
16823;DHT22;8528;49.976;11.858;2023-08-07T08:58:43;10.90;99.90
16823;DHT22;8528;49.976;11.858;2023-08-07T09:01:11;10.90;99.90
16823;DHT22;8528;49.976;11.858;2023-08-07T09:03:38;10.80;99.90
16823;DHT22;8528;49.976;11.858;2023-08-07T09:06:06;10.80;99.90
16823;DHT22;8528;49.976;11.858;2023-08-07T09:08:34;10.80;99.90
16823;DHT22;8528;49.976;11.858;2023-08-07T09:11:02;10.80;99.90
16823;DHT22;8528;49.976;11.858;2023-08-07T09:13:31;10.80;99.90
16823;DHT22;8528;49.976;11.858;2023-08-07T09:16:00;10.90;99.90
16823;DHT22;8528;49.976;11.858;2023-08-07T09:18:28;10.80;99.90
16823;DHT22;8528;49.976;11.858;2023-08-07T09:20:55;10.90;99.90
16823;DHT22;8528;49.976;11.858;2023-08-07T09:23:24;11.00;99.90
16823;DHT22;8528;49.976;11.858;2023-08-07T09:26:04;11.20;99.90
16823;DHT22;8528;49.976;11.858;2023-08-07T09:28:32;11.30;99.90
16823;DHT22;8528;49.976;11.858;2023-08-07T09:30:59;11.50;99.90
16823;DHT22;8528;49.976;11.858;2023-08-07T09:33:29;11.50;99.90
16823;DHT22;8528;49.976;11.858;2023-08-07T09:36:01;11.60;99.90
16823;DHT22;8528;49.976;11.858;2023-08-07T09:38:29;11.60;99.90
16823;DHT22;8528;49.976;11.858;2023-08-07T09:41:00;11.60;99.90
16823;DHT22;8528;49.976;11.858;2023-08-07T09:43:33;11.70;99.90
16823;DHT22;8528;49.976;11.858;2023-08-07T09:46:10;11.60;99.90
16823;DHT22;8528;49.976;11.858;2023-08-07T09:48:43;11.60;99.90
16823;DHT22;8528;49.976;11.858;2023-08-07T09:51:10;11.60;99.90
16823;DHT22;8528;49.976;11.858;2023-08-07T09:53:37;11.50;99.90
16823;DHT22;8528;49.976;11.858;2023-08-07T09:56:04;11.50;99.90
16823;DHT22;8528;49.976;11.858;2023-08-07T09:58:33;11.50;99.90
16823;DHT22;8528;49.976;11.858;2023-08-07T10:01:02;11.60;99.90
16823;DHT22;8528;49.976;11.858;2023-08-07T10:03:29;11.60;99.90
16823;DHT22;8528;49.976;11.858;2023-08-07T10:05:57;11.70;99.90
16823;DHT22;8528;49.976;11.858;2023-08-07T10:08:24;11.90;99.90
16823;DHT22;8528;49.976;11.858;2023-08-07T10:10:52;12.00;99.90
16823;DHT22;8528;49.976;11.858;2023-08-07T10:13:19;12.20;99.90
16823;DHT22;8528;49.976;11.858;2023-08-07T10:16:00;12.40;99.90
16823;DHT22;8528;49.976;11.858;2023-08-07T10:18:27;12.50;99.90
16823;DHT22;8528;49.976;11.858;2023-08-07T10:20:54;12.30;99.90
16823;DHT22;8528;49.976;11.858;2023-08-07T10:23:22;12.50;99.90
16823;DHT22;8528;49.976;11.858;2023-08-07T10:25:50;12.50;99.90
16823;DHT22;8528;49.976;11.858;2023-08-07T10:28:20;12.50;99.90
16823;DHT22;8528;49.976;11.858;2023-08-07T10:30:47;12.60;99.90
16823;DHT22;8528;49.976;11.858;2023-08-07T10:33:15;12.80;99.90
16823;DHT22;8528;49.976;11.858;2023-08-07T10:35:46;13.00;99.90
16823;DHT22;8528;49.976;11.858;2023-08-07T10:38:14;13.00;99.90
16823;DHT22;8528;49.976;11.858;2023-08-07T10:41:07;13.10;99.90
16823;DHT22;8528;49.976;11.858;2023-08-07T10:43:44;13.20;99.90
16823;DHT22;8528;49.976;11.858;2023-08-07T10:46:16;13.30;99.90
16823;DHT22;8528;49.976;11.858;2023-08-07T10:48:55;13.20;99.90
16823;DHT22;8528;49.976;11.858;2023-08-07T10:51:29;13.10;99.90
16823;DHT22;8528;49.976;11.858;2023-08-07T10:54:01;13.00;99.90
16823;DHT22;8528;49.976;11.858;2023-08-07T10:56:34;12.90;99.90
16823;DHT22;8528;49.976;11.858;2023-08-07T10:59:12;12.90;99.90
16823;DHT22;8528;49.976;11.858;2023-08-07T11:01:43;12.80;99.90
16823;DHT22;8528;49.976;11.858;2023-08-07T11:04:14;12.80;99.90
16823;DHT22;8528;49.976;11.858;2023-08-07T11:06:42;12.80;99.90
16823;DHT22;8528;49.976;11.858;2023-08-07T11:09:10;12.90;99.90
16823;DHT22;8528;49.976;11.858;2023-08-07T11:11:45;12.80;99.90
16823;DHT22;8528;49.976;11.858;2023-08-07T11:14:17;12.70;99.90
16823;DHT22;8528;49.976;11.858;2023-08-07T11:16:46;12.50;99.90
16823;DHT22;8528;49.976;11.858;2023-08-07T11:19:15;12.40;99.90
16823;DHT22;8528;49.976;11.858;2023-08-07T11:21:42;12.30;99.90
16823;DHT22;8528;49.976;11.858;2023-08-07T11:24:12;12.30;99.90
16823;DHT22;8528;49.976;11.858;2023-08-07T11:26:42;12.20;99.90
16823;DHT22;8528;49.976;11.858;2023-08-07T11:29:23;12.10;99.90
16823;DHT22;8528;49.976;11.858;2023-08-07T11:31:53;12.00;99.90
16823;DHT22;8528;49.976;11.858;2023-08-07T11:34:20;11.90;99.90
16823;DHT22;8528;49.976;11.858;2023-08-07T11:36:48;11.80;99.90
16823;DHT22;8528;49.976;11.858;2023-08-07T11:39:14;11.80;99.90
16823;DHT22;8528;49.976;11.858;2023-08-07T11:41:43;11.70;99.90
16823;DHT22;8528;49.976;11.858;2023-08-07T11:44:11;11.70;99.90
16823;DHT22;8528;49.976;11.858;2023-08-07T11:46:37;11.70;99.90
16823;DHT22;8528;49.976;11.858;2023-08-07T11:49:05;11.60;99.90
16823;DHT22;8528;49.976;11.858;2023-08-07T11:58:09;11.60;99.90
16823;DHT22;8528;49.976;11.858;2023-08-07T12:00:36;11.50;99.90
16823;DHT22;8528;49.976;11.858;2023-08-07T12:03:02;11.40;99.90
16823;DHT22;8528;49.976;11.858;2023-08-07T12:05:38;11.40;99.90
16823;DHT22;8528;49.976;11.858;2023-08-07T12:08:07;11.40;99.90
16823;DHT22;8528;49.976;11.858;2023-08-07T12:10:35;11.30;99.90
16823;DHT22;8528;49.976;11.858;2023-08-07T12:13:01;11.30;99.90
16823;DHT22;8528;49.976;11.858;2023-08-07T12:15:31;11.20;99.90
16823;DHT22;8528;49.976;11.858;2023-08-07T12:18:01;11.20;99.90
16823;DHT22;8528;49.976;11.858;2023-08-07T12:20:28;11.30;99.90
16823;DHT22;8528;49.976;11.858;2023-08-07T12:22:55;11.30;99.90
16823;DHT22;8528;49.976;11.858;2023-08-07T12:25:22;11.30;99.90
16823;DHT22;8528;49.976;11.858;2023-08-07T12:27:49;11.20;99.90
16823;DHT22;8528;49.976;11.858;2023-08-07T12:30:15;11.20;99.90
16823;DHT22;8528;49.976;11.858;2023-08-07T12:32:42;11.30;99.90
16823;DHT22;8528;49.976;11.858;2023-08-07T12:35:09;11.20;99.90
16823;DHT22;8528;49.976;11.858;2023-08-07T12:37:39;11.20;99.90
16823;DHT22;8528;49.976;11.858;2023-08-07T12:40:06;11.30;99.90
16823;DHT22;8528;49.976;11.858;2023-08-07T12:42:36;11.30;99.90
16823;DHT22;8528;49.976;11.858;2023-08-07T12:45:04;11.30;99.90
16823;DHT22;8528;49.976;11.858;2023-08-07T12:47:30;11.30;99.90
16823;DHT22;8528;49.976;11.858;2023-08-07T12:49:57;11.30;99.90
16823;DHT22;8528;49.976;11.858;2023-08-07T12:52:26;11.30;99.90
16823;DHT22;8528;49.976;11.858;2023-08-07T12:54:53;11.30;99.90
16823;DHT22;8528;49.976;11.858;2023-08-07T12:57:20;11.30;99.90
16823;DHT22;8528;49.976;11.858;2023-08-07T13:03:02;11.20;99.90
16823;DHT22;8528;49.976;11.858;2023-08-07T13:05:29;11.20;99.90
16823;DHT22;8528;49.976;11.858;2023-08-07T13:07:57;11.30;99.90
16823;DHT22;8528;49.976;11.858;2023-08-07T13:10:25;11.30;99.90
16823;DHT22;8528;49.976;11.858;2023-08-07T13:12:54;11.30;99.90
16823;DHT22;8528;49.976;11.858;2023-08-07T13:15:22;11.30;99.90
16823;DHT22;8528;49.976;11.858;2023-08-07T13:17:48;11.30;99.90
16823;DHT22;8528;49.976;11.858;2023-08-07T13:20:16;11.30;99.90
16823;DHT22;8528;49.976;11.858;2023-08-07T13:22:44;11.30;99.90
16823;DHT22;8528;49.976;11.858;2023-08-07T13:25:12;11.30;99.90
16823;DHT22;8528;49.976;11.858;2023-08-07T13:27:40;11.30;99.90
16823;DHT22;8528;49.976;11.858;2023-08-07T13:30:08;11.30;99.90
16823;DHT22;8528;49.976;11.858;2023-08-07T13:32:36;11.40;99.90
16823;DHT22;8528;49.976;11.858;2023-08-07T13:35:04;11.40;99.90
16823;DHT22;8528;49.976;11.858;2023-08-07T13:37:31;11.40;99.90
16823;DHT22;8528;49.976;11.858;2023-08-07T13:40:00;11.40;99.90
16823;DHT22;8528;49.976;11.858;2023-08-07T13:42:27;11.40;99.90
16823;DHT22;8528;49.976;11.858;2023-08-07T13:44:55;11.40;99.90
16823;DHT22;8528;49.976;11.858;2023-08-07T13:47:22;11.40;99.90
16823;DHT22;8528;49.976;11.858;2023-08-07T13:49:53;11.40;99.90
16823;DHT22;8528;49.976;11.858;2023-08-07T13:52:20;11.40;99.90
16823;DHT22;8528;49.976;11.858;2023-08-07T13:54:48;11.40;99.90
16823;DHT22;8528;49.976;11.858;2023-08-07T13:57:15;11.40;99.90
16823;DHT22;8528;49.976;11.858;2023-08-07T13:59:42;11.40;99.90
16823;DHT22;8528;49.976;11.858;2023-08-07T14:02:09;11.40;99.90
16823;DHT22;8528;49.976;11.858;2023-08-07T14:04:37;11.40;99.90
16823;DHT22;8528;49.976;11.858;2023-08-07T14:07:03;11.30;99.90
16823;DHT22;8528;49.976;11.858;2023-08-07T14:09:30;11.30;99.90
16823;DHT22;8528;49.976;11.858;2023-08-07T14:11:58;11.30;99.90
16823;DHT22;8528;49.976;11.858;2023-08-07T14:14:25;11.30;99.90
16823;DHT22;8528;49.976;11.858;2023-08-07T14:16:52;11.30;99.90
16823;DHT22;8528;49.976;11.858;2023-08-07T14:19:21;11.30;99.90
16823;DHT22;8528;49.976;11.858;2023-08-07T14:21:48;11.30;99.90
16823;DHT22;8528;49.976;11.858;2023-08-07T14:24:15;11.30;99.90
16823;DHT22;8528;49.976;11.858;2023-08-07T14:26:43;11.30;99.90
16823;DHT22;8528;49.976;11.858;2023-08-07T14:29:12;11.30;99.90
16823;DHT22;8528;49.976;11.858;2023-08-07T14:31:39;11.30;99.90
16823;DHT22;8528;49.976;11.858;2023-08-07T14:34:06;11.40;99.90
16823;DHT22;8528;49.976;11.858;2023-08-07T14:36:35;11.40;99.90
16823;DHT22;8528;49.976;11.858;2023-08-07T14:39:02;11.40;99.90
16823;DHT22;8528;49.976;11.858;2023-08-07T14:41:29;11.40;99.90
16823;DHT22;8528;49.976;11.858;2023-08-07T14:43:56;11.40;99.90
16823;DHT22;8528;49.976;11.858;2023-08-07T14:46:23;11.50;99.90
16823;DHT22;8528;49.976;11.858;2023-08-07T14:48:51;11.50;99.90
16823;DHT22;8528;49.976;11.858;2023-08-07T14:51:18;11.50;99.90
16823;DHT22;8528;49.976;11.858;2023-08-07T14:53:45;11.40;99.90
16823;DHT22;8528;49.976;11.858;2023-08-07T14:56:12;11.30;99.90
16823;DHT22;8528;49.976;11.858;2023-08-07T14:58:38;11.40;99.90
16823;DHT22;8528;49.976;11.858;2023-08-07T15:01:05;11.50;99.90
16823;DHT22;8528;49.976;11.858;2023-08-07T15:03:32;11.50;99.90
16823;DHT22;8528;49.976;11.858;2023-08-07T15:05:59;11.40;99.90
16823;DHT22;8528;49.976;11.858;2023-08-07T15:08:26;11.30;99.90
16823;DHT22;8528;49.976;11.858;2023-08-07T15:10:53;11.30;99.90
16823;DHT22;8528;49.976;11.858;2023-08-07T15:13:20;11.30;99.90
16823;DHT22;8528;49.976;11.858;2023-08-07T15:15:47;11.30;99.90
16823;DHT22;8528;49.976;11.858;2023-08-07T15:18:14;11.30;99.90
16823;DHT22;8528;49.976;11.858;2023-08-07T15:20:41;11.20;99.90
16823;DHT22;8528;49.976;11.858;2023-08-07T15:23:08;11.20;99.90
16823;DHT22;8528;49.976;11.858;2023-08-07T15:25:37;11.20;99.90
16823;DHT22;8528;49.976;11.858;2023-08-07T15:28:05;11.20;99.90
16823;DHT22;8528;49.976;11.858;2023-08-07T15:30:32;11.20;99.90
16823;DHT22;8528;49.976;11.858;2023-08-07T15:32:59;11.20;99.90
16823;DHT22;8528;49.976;11.858;2023-08-07T15:35:29;11.20;99.90
16823;DHT22;8528;49.976;11.858;2023-08-07T15:37:57;11.20;99.90
16823;DHT22;8528;49.976;11.858;2023-08-07T15:40:24;11.20;99.90
16823;DHT22;8528;49.976;11.858;2023-08-07T15:42:51;11.20;99.90
16823;DHT22;8528;49.976;11.858;2023-08-07T15:45:18;11.20;99.90
16823;DHT22;8528;49.976;11.858;2023-08-07T15:47:45;11.20;99.90
16823;DHT22;8528;49.976;11.858;2023-08-07T15:50:13;11.10;99.90
16823;DHT22;8528;49.976;11.858;2023-08-07T15:52:40;11.10;99.90
16823;DHT22;8528;49.976;11.858;2023-08-07T15:55:08;11.10;99.90
16823;DHT22;8528;49.976;11.858;2023-08-07T15:57:35;11.10;99.90